sensor_id;sensor_type;location;lat;lon;timestamp;pressure;altitude;pressure_sealevel;temperature;humidity
72226;BME280;60130;52.250;5.048;2022-09-12T00:00:00;1017.6;;;15.1;86.2
72226;BME280;60130;52.250;5.048;2022-09-12T00:05:00;1017.6;;;15.1;86.6
72226;BME280;60130;52.250;5.048;2022-09-12T00:10:00;1017.6;;;15.1;86.3
72226;BME280;60130;52.250;5.048;2022-09-12T00:15:00;1017.6;;;15.1;86.3
72226;BME280;60130;52.250;5.048;2022-09-12T00:20:00;1017.5;;;15.2;85.9
72226;BME280;60130;52.250;5.048;2022-09-12T00:25:00;1017.4;;;15.2;86.1
72226;BME280;60130;52.250;5.048;2022-09-12T00:30:00;1017.5;;;15.1;86.7
72226;BME280;60130;52.250;5.048;2022-09-12T00:35:00;1017.4;;;15.1;86.5
72226;BME280;60130;52.250;5.048;2022-09-12T00:40:00;1017.4;;;15.2;86.1
72226;BME280;60130;52.250;5.048;2022-09-12T00:45:00;1017.3;;;15.1;86.2
72226;BME280;60130;52.250;5.048;2022-09-12T00:50:04;1017.3;;;15.1;86.2
72226;BME280;60130;52.250;5.048;2022-09-12T00:55:02;1017.3;;;15.0;86.2
72226;BME280;60130;52.250;5.048;2022-09-12T01:00:06;1017.3;;;14.9;86.2
72226;BME280;60130;52.250;5.048;2022-09-12T01:05:00;1017.2;;;14.9;86.3
72226;BME280;60130;52.250;5.048;2022-09-12T01:10:00;1017.2;;;14.8;86.4
72226;BME280;60130;52.250;5.048;2022-09-12T01:15:00;1017.2;;;14.7;86.8
72226;BME280;60130;52.250;5.048;2022-09-12T01:20:17;1017.1;;;14.7;86.5
72226;BME280;60130;52.250;5.048;2022-09-12T01:25:07;1017.0;;;14.7;86.5
72226;BME280;60130;52.250;5.048;2022-09-12T01:30:20;1017.0;;;14.7;87.0
72226;BME280;60130;52.250;5.048;2022-09-12T01:35:04;1016.9;;;14.7;87.3
72226;BME280;60130;52.250;5.048;2022-09-12T01:40:06;1016.9;;;14.8;86.2
72226;BME280;60130;52.250;5.048;2022-09-12T01:45:06;1016.9;;;14.7;86.0
72226;BME280;60130;52.250;5.048;2022-09-12T01:50:03;1016.9;;;14.7;85.9
72226;BME280;60130;52.250;5.048;2022-09-12T01:55:03;1016.8;;;14.7;86.0
72226;BME280;60130;52.250;5.048;2022-09-12T02:00:04;1016.8;;;14.8;85.9
72226;BME280;60130;52.250;5.048;2022-09-12T02:05:04;1016.7;;;14.7;85.7
72226;BME280;60130;52.250;5.048;2022-09-12T02:10:06;1016.7;;;14.7;86.5
72226;BME280;60130;52.250;5.048;2022-09-12T02:15:03;1016.7;;;14.7;86.7
72226;BME280;60130;52.250;5.048;2022-09-12T02:20:04;1016.7;;;14.7;87.4
72226;BME280;60130;52.250;5.048;2022-09-12T02:25:01;1016.6;;;14.7;87.3
72226;BME280;60130;52.250;5.048;2022-09-12T02:30:00;1016.6;;;14.8;87.5
72226;BME280;60130;52.250;5.048;2022-09-12T02:35:02;1016.5;;;14.8;87.1
72226;BME280;60130;52.250;5.048;2022-09-12T02:40:00;1016.6;;;14.8;86.9
72226;BME280;60130;52.250;5.048;2022-09-12T02:45:00;1016.5;;;14.8;87.1
72226;BME280;60130;52.250;5.048;2022-09-12T02:50:00;1016.5;;;14.8;87.1
72226;BME280;60130;52.250;5.048;2022-09-12T02:55:00;1016.4;;;14.7;87.3
72226;BME280;60130;52.250;5.048;2022-09-12T03:00:00;1016.4;;;14.7;87.1
72226;BME280;60130;52.250;5.048;2022-09-12T03:05:12;1016.4;;;14.7;86.7
72226;BME280;60130;52.250;5.048;2022-09-12T03:10:03;1016.3;;;14.7;87.0
72226;BME280;60130;52.250;5.048;2022-09-12T03:15:12;1016.4;;;14.7;86.6
72226;BME280;60130;52.250;5.048;2022-09-12T03:20:03;1016.4;;;14.7;86.7
72226;BME280;60130;52.250;5.048;2022-09-12T03:25:05;1016.3;;;14.8;86.4
72226;BME280;60130;52.250;5.048;2022-09-12T03:30:00;1016.3;;;14.9;86.2
72226;BME280;60130;52.250;5.048;2022-09-12T03:35:00;1016.3;;;14.9;86.0
72226;BME280;60130;52.250;5.048;2022-09-12T03:40:00;1016.2;;;14.8;86.6
72226;BME280;60130;52.250;5.048;2022-09-12T03:45:00;1016.2;;;14.8;87.3
72226;BME280;60130;52.250;5.048;2022-09-12T03:50:00;1016.1;;;14.9;87.2
72226;BME280;60130;52.250;5.048;2022-09-12T03:55:00;1016.1;;;14.9;87.2
72226;BME280;60130;52.250;5.048;2022-09-12T04:00:00;1016.1;;;14.9;87.6
72226;BME280;60130;52.250;5.048;2022-09-12T04:05:00;1016.1;;;14.9;87.4
72226;BME280;60130;52.250;5.048;2022-09-12T04:10:00;1016.0;;;14.9;87.3
72226;BME280;60130;52.250;5.048;2022-09-12T04:15:00;1016.0;;;15.0;86.9
72226;BME280;60130;52.250;5.048;2022-09-12T04:20:00;1016.0;;;15.0;86.9
72226;BME280;60130;52.250;5.048;2022-09-12T04:25:00;1016.1;;;15.1;87.0
72226;BME280;60130;52.250;5.048;2022-09-12T04:30:00;1016.2;;;15.3;86.3
72226;BME280;60130;52.250;5.048;2022-09-12T04:35:00;1016.1;;;15.4;86.1
72226;BME280;60130;52.250;5.048;2022-09-12T04:40:00;1016.1;;;15.3;86.1
72226;BME280;60130;52.250;5.048;2022-09-12T04:45:00;1016.1;;;15.3;86.3
72226;BME280;60130;52.250;5.048;2022-09-12T04:50:00;1016.1;;;15.3;86.1
72226;BME280;60130;52.250;5.048;2022-09-12T04:55:00;1016.0;;;15.2;86.5
72226;BME280;60130;52.250;5.048;2022-09-12T05:00:00;1016.1;;;15.2;86.4
72226;BME280;60130;52.250;5.048;2022-09-12T05:05:00;1016.0;;;15.2;86.1
72226;BME280;60130;52.250;5.048;2022-09-12T05:10:00;1016.0;;;15.1;86.7
72226;BME280;60130;52.250;5.048;2022-09-12T05:15:00;1016.0;;;15.2;86.5
72226;BME280;60130;52.250;5.048;2022-09-12T05:20:00;1016.0;;;15.2;86.3
72226;BME280;60130;52.250;5.048;2022-09-12T05:25:00;1016.0;;;15.2;86.0
72226;BME280;60130;52.250;5.048;2022-09-12T05:30:00;1016.0;;;15.2;85.7
72226;BME280;60130;52.250;5.048;2022-09-12T05:35:00;1016.0;;;15.1;86.1
72226;BME280;60130;52.250;5.048;2022-09-12T05:40:00;1015.9;;;15.0;86.5
72226;BME280;60130;52.250;5.048;2022-09-12T05:45:00;1015.8;;;15.0;86.4
72226;BME280;60130;52.250;5.048;2022-09-12T05:50:00;1015.8;;;15.0;86.4
72226;BME280;60130;52.250;5.048;2022-09-12T05:55:00;1015.8;;;15.0;86.5
72226;BME280;60130;52.250;5.048;2022-09-12T06:00:00;1015.9;;;15.0;86.1
72226;BME280;60130;52.250;5.048;2022-09-12T06:05:00;1016.0;;;15.0;85.9
72226;BME280;60130;52.250;5.048;2022-09-12T06:10:00;1015.9;;;15.0;85.9
72226;BME280;60130;52.250;5.048;2022-09-12T06:15:00;1016.0;;;15.2;85.4
72226;BME280;60130;52.250;5.048;2022-09-12T06:20:00;1015.9;;;16.0;84.0
72226;BME280;60130;52.250;5.048;2022-09-12T06:25:00;1015.9;;;17.5;79.4
72226;BME280;60130;52.250;5.048;2022-09-12T06:30:00;1015.9;;;17.2;79.3
72226;BME280;60130;52.250;5.048;2022-09-12T06:35:00;1015.8;;;17.1;79.8
72226;BME280;60130;52.250;5.048;2022-09-12T06:40:00;1015.8;;;18.3;76.8
72226;BME280;60130;52.250;5.048;2022-09-12T06:45:00;1015.8;;;19.5;73.2
72226;BME280;60130;52.250;5.048;2022-09-12T06:50:00;1015.9;;;20.2;70.9
72226;BME280;60130;52.250;5.048;2022-09-12T06:55:00;1015.9;;;20.5;70.2
72226;BME280;60130;52.250;5.048;2022-09-12T07:00:00;1015.9;;;21.1;68.3
72226;BME280;60130;52.250;5.048;2022-09-12T07:05:00;1015.9;;;20.8;68.9
72226;BME280;60130;52.250;5.048;2022-09-12T07:10:00;1015.9;;;21.8;66.6
72226;BME280;60130;52.250;5.048;2022-09-12T07:15:00;1015.8;;;21.7;66.4
72226;BME280;60130;52.250;5.048;2022-09-12T07:20:00;1015.8;;;19.8;71.6
72226;BME280;60130;52.250;5.048;2022-09-12T07:25:00;1015.8;;;19.0;74.9
72226;BME280;60130;52.250;5.048;2022-09-12T07:30:00;1015.8;;;18.8;76.9
72226;BME280;60130;52.250;5.048;2022-09-12T07:35:00;1015.8;;;18.3;77.9
72226;BME280;60130;52.250;5.048;2022-09-12T07:40:00;1015.8;;;18.3;78.4
72226;BME280;60130;52.250;5.048;2022-09-12T07:45:00;1015.8;;;18.5;77.2
72226;BME280;60130;52.250;5.048;2022-09-12T07:50:00;1015.8;;;18.7;77.5
72226;BME280;60130;52.250;5.048;2022-09-12T07:55:00;1015.8;;;18.9;76.9
72226;BME280;60130;52.250;5.048;2022-09-12T08:00:00;1015.8;;;19.1;76.9
72226;BME280;60130;52.250;5.048;2022-09-12T08:05:00;1015.8;;;19.3;76.3
72226;BME280;60130;52.250;5.048;2022-09-12T08:10:00;1015.7;;;19.3;76.1
72226;BME280;60130;52.250;5.048;2022-09-12T08:15:00;1015.8;;;19.6;75.4
72226;BME280;60130;52.250;5.048;2022-09-12T08:20:00;1015.8;;;20.0;74.8
72226;BME280;60130;52.250;5.048;2022-09-12T08:25:00;1015.8;;;19.9;74.1
72226;BME280;60130;52.250;5.048;2022-09-12T08:30:00;1015.8;;;20.1;73.6
72226;BME280;60130;52.250;5.048;2022-09-12T08:35:00;1015.8;;;20.1;74.1
72226;BME280;60130;52.250;5.048;2022-09-12T08:40:00;1015.8;;;20.3;73.0
72226;BME280;60130;52.250;5.048;2022-09-12T08:45:07;1015.8;;;20.7;72.5
72226;BME280;60130;52.250;5.048;2022-09-12T08:50:05;1015.8;;;20.8;70.8
72226;BME280;60130;52.250;5.048;2022-09-12T08:55:03;1015.8;;;21.1;71.0
72226;BME280;60130;52.250;5.048;2022-09-12T09:00:01;1015.8;;;21.5;70.2
72226;BME280;60130;52.250;5.048;2022-09-12T09:05:05;1015.8;;;21.8;69.2
72226;BME280;60130;52.250;5.048;2022-09-12T09:10:07;1015.8;;;21.9;67.7
72226;BME280;60130;52.250;5.048;2022-09-12T09:15:11;1015.6;;;22.0;67.5
72226;BME280;60130;52.250;5.048;2022-09-12T09:20:02;1015.6;;;22.3;67.2
72226;BME280;60130;52.250;5.048;2022-09-12T09:25:05;1015.7;;;22.1;67.9
72226;BME280;60130;52.250;5.048;2022-09-12T09:30:01;1015.6;;;22.1;67.9
72226;BME280;60130;52.250;5.048;2022-09-12T09:35:00;1015.5;;;22.2;67.3
72226;BME280;60130;52.250;5.048;2022-09-12T09:40:07;1015.5;;;22.6;68.2
72226;BME280;60130;52.250;5.048;2022-09-12T09:45:10;1015.4;;;22.5;66.0
72226;BME280;60130;52.250;5.048;2022-09-12T09:50:00;1015.4;;;22.6;66.5
72226;BME280;60130;52.250;5.048;2022-09-12T09:55:00;1015.4;;;22.9;67.0
72226;BME280;60130;52.250;5.048;2022-09-12T10:00:21;1015.4;;;22.8;65.7
72226;BME280;60130;52.250;5.048;2022-09-12T10:05:00;1015.3;;;22.8;66.3
72226;BME280;60130;52.250;5.048;2022-09-12T10:10:12;1015.3;;;22.9;64.6
72226;BME280;60130;52.250;5.048;2022-09-12T10:15:01;1015.2;;;22.8;64.8
72226;BME280;60130;52.250;5.048;2022-09-12T10:20:01;1015.0;;;22.7;64.3
72226;BME280;60130;52.250;5.048;2022-09-12T10:25:00;1015.0;;;22.9;64.3
72226;BME280;60130;52.250;5.048;2022-09-12T10:30:02;1015.0;;;23.1;64.0
72226;BME280;60130;52.250;5.048;2022-09-12T10:35:01;1014.9;;;23.2;63.6
72226;BME280;60130;52.250;5.048;2022-09-12T10:40:02;1014.9;;;23.6;63.3
72226;BME280;60130;52.250;5.048;2022-09-12T10:45:00;1014.8;;;23.8;62.0
72226;BME280;60130;52.250;5.048;2022-09-12T10:55:00;1014.8;;;23.4;62.5
72226;BME280;60130;52.250;5.048;2022-09-12T11:00:06;1014.8;;;23.2;63.5
72226;BME280;60130;52.250;5.048;2022-09-12T11:05:07;1014.8;;;23.6;63.1
72226;BME280;60130;52.250;5.048;2022-09-12T11:10:10;1014.8;;;23.7;62.3
72226;BME280;60130;52.250;5.048;2022-09-12T11:15:11;1014.8;;;23.9;60.7
72226;BME280;60130;52.250;5.048;2022-09-12T11:20:18;1014.7;;;24.0;61.3
72226;BME280;60130;52.250;5.048;2022-09-12T11:25:12;1014.6;;;24.2;60.1
72226;BME280;60130;52.250;5.048;2022-09-12T11:30:03;1014.7;;;24.5;58.8
72226;BME280;60130;52.250;5.048;2022-09-12T11:35:05;1014.6;;;24.5;59.1
72226;BME280;60130;52.250;5.048;2022-09-12T11:40:04;1014.6;;;24.6;58.2
72226;BME280;60130;52.250;5.048;2022-09-12T11:45:04;1014.6;;;24.7;58.6
72226;BME280;60130;52.250;5.048;2022-09-12T11:50:02;1014.5;;;24.8;57.2
72226;BME280;60130;52.250;5.048;2022-09-12T11:55:03;1014.5;;;24.7;58.3
72226;BME280;60130;52.250;5.048;2022-09-12T12:00:03;1014.5;;;25.0;58.2
72226;BME280;60130;52.250;5.048;2022-09-12T12:05:14;1014.5;;;25.1;55.9
72226;BME280;60130;52.250;5.048;2022-09-12T12:10:00;1014.5;;;25.1;55.9
72226;BME280;60130;52.250;5.048;2022-09-12T12:15:00;1014.4;;;25.5;56.4
72226;BME280;60130;52.250;5.048;2022-09-12T12:20:02;1014.3;;;25.5;55.3
72226;BME280;60130;52.250;5.048;2022-09-12T12:25:05;1014.3;;;25.6;55.4
72226;BME280;60130;52.250;5.048;2022-09-12T12:30:00;1014.2;;;25.5;55.3
72226;BME280;60130;52.250;5.048;2022-09-12T12:40:07;1014.0;;;25.5;54.9
72226;BME280;60130;52.250;5.048;2022-09-12T12:45:01;1014.0;;;25.6;55.4
72226;BME280;60130;52.250;5.048;2022-09-12T12:50:02;1014.0;;;25.4;54.9
72226;BME280;60130;52.250;5.048;2022-09-12T12:55:01;1013.9;;;25.3;53.5
72226;BME280;60130;52.250;5.048;2022-09-12T13:00:02;1013.9;;;25.7;53.8
72226;BME280;60130;52.250;5.048;2022-09-12T13:05:03;1013.8;;;25.8;53.2
72226;BME280;60130;52.250;5.048;2022-09-12T13:10:01;1013.7;;;26.0;52.2
72226;BME280;60130;52.250;5.048;2022-09-12T13:15:01;1013.7;;;25.5;51.8
72226;BME280;60130;52.250;5.048;2022-09-12T13:20:05;1013.6;;;25.4;52.9
72226;BME280;60130;52.250;5.048;2022-09-12T13:25:00;1013.6;;;25.2;52.1
72226;BME280;60130;52.250;5.048;2022-09-12T13:30:05;1013.6;;;25.3;52.8
72226;BME280;60130;52.250;5.048;2022-09-12T13:35:10;1013.6;;;25.4;52.1
72226;BME280;60130;52.250;5.048;2022-09-12T13:40:09;1013.6;;;25.6;50.9
72226;BME280;60130;52.250;5.048;2022-09-12T13:45:02;1013.5;;;25.9;50.9
72226;BME280;60130;52.250;5.048;2022-09-12T13:50:00;1013.4;;;25.8;51.0
72226;BME280;60130;52.250;5.048;2022-09-12T13:55:04;1013.4;;;25.5;51.3
72226;BME280;60130;52.250;5.048;2022-09-12T14:00:04;1013.3;;;26.0;51.0
72226;BME280;60130;52.250;5.048;2022-09-12T14:05:10;1013.2;;;25.7;51.7
72226;BME280;60130;52.250;5.048;2022-09-12T14:10:00;1013.2;;;25.8;52.4
72226;BME280;60130;52.250;5.048;2022-09-12T14:15:00;1013.0;;;25.7;51.5
72226;BME280;60130;52.250;5.048;2022-09-12T14:20:06;1013.0;;;25.6;52.0
72226;BME280;60130;52.250;5.048;2022-09-12T14:25:00;1012.9;;;25.9;51.9
72226;BME280;60130;52.250;5.048;2022-09-12T14:30:02;1012.9;;;25.7;51.2
72226;BME280;60130;52.250;5.048;2022-09-12T14:35:04;1012.9;;;25.8;49.8
72226;BME280;60130;52.250;5.048;2022-09-12T14:40:00;1012.9;;;26.0;49.2
72226;BME280;60130;52.250;5.048;2022-09-12T14:45:02;1012.8;;;25.8;50.7
72226;BME280;60130;52.250;5.048;2022-09-12T14:50:00;1012.7;;;25.6;51.1
72226;BME280;60130;52.250;5.048;2022-09-12T14:55:02;1012.8;;;25.6;51.6
72226;BME280;60130;52.250;5.048;2022-09-12T15:00:15;1012.7;;;25.6;50.3
72226;BME280;60130;52.250;5.048;2022-09-12T15:05:14;1012.7;;;25.7;50.4
72226;BME280;60130;52.250;5.048;2022-09-12T15:10:02;1012.6;;;25.2;50.5
72226;BME280;60130;52.250;5.048;2022-09-12T15:15:11;1012.7;;;25.6;52.9
72226;BME280;60130;52.250;5.048;2022-09-12T15:20:00;1012.6;;;25.4;51.7
72226;BME280;60130;52.250;5.048;2022-09-12T15:25:00;1012.6;;;24.9;51.2
72226;BME280;60130;52.250;5.048;2022-09-12T15:30:00;1012.6;;;24.8;51.7
72226;BME280;60130;52.250;5.048;2022-09-12T15:35:00;1012.6;;;24.9;52.5
72226;BME280;60130;52.250;5.048;2022-09-12T15:40:00;1012.4;;;25.4;52.4
72226;BME280;60130;52.250;5.048;2022-09-12T15:45:00;1012.3;;;25.8;51.2
72226;BME280;60130;52.250;5.048;2022-09-12T15:50:00;1012.4;;;25.9;50.6
72226;BME280;60130;52.250;5.048;2022-09-12T15:55:00;1012.3;;;26.1;52.4
72226;BME280;60130;52.250;5.048;2022-09-12T16:00:00;1012.3;;;25.9;50.9
72226;BME280;60130;52.250;5.048;2022-09-12T16:05:00;1012.3;;;26.0;50.8
72226;BME280;60130;52.250;5.048;2022-09-12T16:10:00;1012.3;;;25.5;51.7
72226;BME280;60130;52.250;5.048;2022-09-12T16:15:00;1012.1;;;24.9;50.9
72226;BME280;60130;52.250;5.048;2022-09-12T16:20:00;1012.1;;;24.4;51.8
72226;BME280;60130;52.250;5.048;2022-09-12T16:25:00;1012.1;;;24.6;51.2
72226;BME280;60130;52.250;5.048;2022-09-12T16:30:00;1012.1;;;24.8;51.6
72226;BME280;60130;52.250;5.048;2022-09-12T16:35:00;1012.0;;;25.0;52.7
72226;BME280;60130;52.250;5.048;2022-09-12T16:40:00;1011.9;;;24.9;52.6
72226;BME280;60130;52.250;5.048;2022-09-12T16:45:00;1011.8;;;24.8;53.0
72226;BME280;60130;52.250;5.048;2022-09-12T16:50:00;1011.7;;;24.6;53.4
72226;BME280;60130;52.250;5.048;2022-09-12T16:55:00;1011.7;;;24.5;55.0
72226;BME280;60130;52.250;5.048;2022-09-12T17:00:00;1011.5;;;24.3;56.6
72226;BME280;60130;52.250;5.048;2022-09-12T17:05:00;1011.6;;;24.3;56.4
72226;BME280;60130;52.250;5.048;2022-09-12T17:10:00;1011.7;;;24.1;56.5
72226;BME280;60130;52.250;5.048;2022-09-12T17:15:00;1011.7;;;23.9;56.9
72226;BME280;60130;52.250;5.048;2022-09-12T17:20:00;1011.8;;;23.8;57.6
72226;BME280;60130;52.250;5.048;2022-09-12T17:25:00;1011.8;;;23.7;58.3
72226;BME280;60130;52.250;5.048;2022-09-12T17:30:00;1011.7;;;23.5;58.7
72226;BME280;60130;52.250;5.048;2022-09-12T17:35:00;1011.6;;;23.3;59.7
72226;BME280;60130;52.250;5.048;2022-09-12T17:40:00;1011.6;;;23.1;60.9
72226;BME280;60130;52.250;5.048;2022-09-12T17:45:00;1011.6;;;23.1;60.7
72226;BME280;60130;52.250;5.048;2022-09-12T17:50:00;1011.5;;;22.9;60.7
72226;BME280;60130;52.250;5.048;2022-09-12T17:55:01;1011.6;;;22.9;60.9
72226;BME280;60130;52.250;5.048;2022-09-12T18:00:00;1011.6;;;22.7;61.0
72226;BME280;60130;52.250;5.048;2022-09-12T18:05:00;1011.7;;;22.6;61.9
72226;BME280;60130;52.250;5.048;2022-09-12T18:10:00;1011.6;;;22.4;62.7
72226;BME280;60130;52.250;5.048;2022-09-12T18:15:00;1011.6;;;22.3;64.0
72226;BME280;60130;52.250;5.048;2022-09-12T18:20:00;1011.6;;;22.2;64.6
72226;BME280;60130;52.250;5.048;2022-09-12T18:25:00;1011.4;;;21.9;65.7
72226;BME280;60130;52.250;5.048;2022-09-12T18:30:00;1011.5;;;21.7;65.1
72226;BME280;60130;52.250;5.048;2022-09-12T18:35:00;1011.6;;;21.7;65.0
72226;BME280;60130;52.250;5.048;2022-09-12T18:40:00;1011.5;;;21.5;65.7
72226;BME280;60130;52.250;5.048;2022-09-12T18:45:00;1011.5;;;21.4;65.1
72226;BME280;60130;52.250;5.048;2022-09-12T18:50:00;1011.4;;;21.2;66.6
72226;BME280;60130;52.250;5.048;2022-09-12T18:55:00;1011.4;;;21.1;67.0
72226;BME280;60130;52.250;5.048;2022-09-12T19:00:00;1011.4;;;21.0;67.1
72226;BME280;60130;52.250;5.048;2022-09-12T19:05:00;1011.3;;;20.8;68.5
72226;BME280;60130;52.250;5.048;2022-09-12T19:10:00;1011.4;;;20.6;69.4
72226;BME280;60130;52.250;5.048;2022-09-12T19:15:00;1011.4;;;20.8;69.0
72226;BME280;60130;52.250;5.048;2022-09-12T19:20:00;1011.3;;;20.8;70.0
72226;BME280;60130;52.250;5.048;2022-09-12T19:25:00;1011.3;;;20.7;72.1
72226;BME280;60130;52.250;5.048;2022-09-12T19:30:00;1011.4;;;20.7;71.8
72226;BME280;60130;52.250;5.048;2022-09-12T19:35:00;1011.5;;;20.8;70.8
72226;BME280;60130;52.250;5.048;2022-09-12T19:40:00;1011.4;;;21.0;69.6
72226;BME280;60130;52.250;5.048;2022-09-12T19:45:00;1011.5;;;21.1;69.5
72226;BME280;60130;52.250;5.048;2022-09-12T19:50:00;1011.4;;;21.0;69.2
72226;BME280;60130;52.250;5.048;2022-09-12T19:55:00;1011.3;;;20.9;68.6
72226;BME280;60130;52.250;5.048;2022-09-12T20:00:00;1011.3;;;20.9;69.0
72226;BME280;60130;52.250;5.048;2022-09-12T20:05:00;1011.3;;;20.8;69.3
72226;BME280;60130;52.250;5.048;2022-09-12T20:10:00;1011.2;;;20.7;69.0
72226;BME280;60130;52.250;5.048;2022-09-12T20:15:00;1011.2;;;20.6;69.7
72226;BME280;60130;52.250;5.048;2022-09-12T20:20:00;1011.2;;;20.4;70.4
72226;BME280;60130;52.250;5.048;2022-09-12T20:25:00;1011.2;;;20.2;72.2
72226;BME280;60130;52.250;5.048;2022-09-12T20:30:00;1011.1;;;20.0;73.0
72226;BME280;60130;52.250;5.048;2022-09-12T20:35:00;1011.1;;;20.0;73.5
72226;BME280;60130;52.250;5.048;2022-09-12T20:40:00;1011.2;;;20.1;73.2
72226;BME280;60130;52.250;5.048;2022-09-12T20:45:00;1011.3;;;20.3;72.7
72226;BME280;60130;52.250;5.048;2022-09-12T20:50:00;1011.2;;;20.4;72.3
72226;BME280;60130;52.250;5.048;2022-09-12T20:55:00;1011.1;;;20.4;72.6
72226;BME280;60130;52.250;5.048;2022-09-12T21:00:00;1011.0;;;20.3;74.0
72226;BME280;60130;52.250;5.048;2022-09-12T21:05:00;1011.0;;;20.1;74.3
72226;BME280;60130;52.250;5.048;2022-09-12T21:10:00;1011.0;;;20.1;74.3
72226;BME280;60130;52.250;5.048;2022-09-12T21:15:00;1011.1;;;20.2;72.8
72226;BME280;60130;52.250;5.048;2022-09-12T21:20:00;1011.1;;;20.3;72.2
72226;BME280;60130;52.250;5.048;2022-09-12T21:25:00;1011.1;;;20.4;71.5
72226;BME280;60130;52.250;5.048;2022-09-12T21:30:00;1011.0;;;20.5;71.0
72226;BME280;60130;52.250;5.048;2022-09-12T21:35:00;1011.0;;;20.5;70.8
72226;BME280;60130;52.250;5.048;2022-09-12T21:40:00;1010.9;;;20.6;70.4
72226;BME280;60130;52.250;5.048;2022-09-12T21:45:00;1011.0;;;20.6;71.3
72226;BME280;60130;52.250;5.048;2022-09-12T21:50:00;1011.0;;;20.6;71.2
72226;BME280;60130;52.250;5.048;2022-09-12T21:55:00;1011.1;;;20.6;71.7
72226;BME280;60130;52.250;5.048;2022-09-12T22:00:01;1011.1;;;20.6;70.2
72226;BME280;60130;52.250;5.048;2022-09-12T22:05:00;1011.1;;;20.5;69.5
72226;BME280;60130;52.250;5.048;2022-09-12T22:10:00;1011.0;;;20.6;69.4
72226;BME280;60130;52.250;5.048;2022-09-12T22:15:00;1011.0;;;20.6;68.8
72226;BME280;60130;52.250;5.048;2022-09-12T22:20:00;1011.0;;;20.7;68.9
72226;BME280;60130;52.250;5.048;2022-09-12T22:25:00;1011.0;;;20.7;68.9
72226;BME280;60130;52.250;5.048;2022-09-12T22:30:00;1010.9;;;20.7;68.9
72226;BME280;60130;52.250;5.048;2022-09-12T22:35:00;1010.8;;;20.7;69.1
72226;BME280;60130;52.250;5.048;2022-09-12T22:40:00;1010.8;;;20.8;68.9
72226;BME280;60130;52.250;5.048;2022-09-12T22:45:00;1010.7;;;20.8;68.8
72226;BME280;60130;52.250;5.048;2022-09-12T22:50:00;1010.6;;;20.8;68.8
72226;BME280;60130;52.250;5.048;2022-09-12T22:55:00;1010.6;;;20.8;69.1
72226;BME280;60130;52.250;5.048;2022-09-12T23:00:00;1010.4;;;20.8;69.1
72226;BME280;60130;52.250;5.048;2022-09-12T23:05:00;1010.5;;;20.7;69.3
72226;BME280;60130;52.250;5.048;2022-09-12T23:10:00;1010.6;;;20.7;69.3
72226;BME280;60130;52.250;5.048;2022-09-12T23:15:00;1010.5;;;20.7;69.2
72226;BME280;60130;52.250;5.048;2022-09-12T23:20:00;1010.5;;;20.6;69.4
72226;BME280;60130;52.250;5.048;2022-09-12T23:25:00;1010.6;;;20.6;69.6
72226;BME280;60130;52.250;5.048;2022-09-12T23:30:00;1010.5;;;20.6;69.7
72226;BME280;60130;52.250;5.048;2022-09-12T23:35:00;1010.4;;;20.5;70.6
72226;BME280;60130;52.250;5.048;2022-09-12T23:40:00;1010.3;;;20.5;70.2
72226;BME280;60130;52.250;5.048;2022-09-12T23:45:00;1010.2;;;20.5;70.6
72226;BME280;60130;52.250;5.048;2022-09-12T23:50:00;1010.1;;;20.4;70.6
72226;BME280;60130;52.250;5.048;2022-09-12T23:55:00;1010.2;;;20.4;71.1
